Time;durP1;ratioP1;P1;durP2;ratioP2;P2;SDS_P1;SDS_P2;PMS_P1;PMS_P2;Temp;Humidity;BMP_temperature;BMP_pressure;BME280_temperature;BME280_humidity;BME280_pressure;Samples;Min_cycle;Max_cycle;Signal;HPM_P1;HPM_P2
2021/09/30 00:00:41;;;;;;;0.10;0.10;;;;;;;;;;4978497;28;20038;-91
2021/09/30 00:03:07;;;;;;;0.10;0.10;;;;;;;;;;4946936;28;20077;-93
2021/09/30 00:05:33;;;;;;;0.10;0.10;;;;;;;;;;4943084;28;20051;-92
2021/09/30 00:07:59;;;;;;;0.10;0.10;;;;;;;;;;4943567;28;20047;-91
2021/09/30 00:10:25;;;;;;;0.10;0.10;;;;;;;;;;4959383;28;20526;-90
2021/09/30 00:13:02;;;;;;;0.10;0.10;;;;;;;;;;4959002;28;20387;-91
2021/09/30 00:15:42;;;;;;;0.10;0.10;;;;;;;;;;4975857;28;20046;-91
2021/09/30 00:32:30;;;;;;;0.10;0.10;;;;;;;;;;4978238;28;20053;-92
2021/09/30 00:53:47;;;;;;;0.10;0.10;;;;;;;;;;4977430;28;20097;-90
2021/09/30 01:19:03;;;;;;;0.10;0.10;;;;;;;;;;4976535;28;20050;-89
2021/09/30 01:22:24;;;;;;;0.10;0.10;;;;;;;;;;4992898;28;20061;-89
2021/09/30 01:33:02;;;;;;;0.10;0.10;;;;;;;;;;4962588;28;20474;-89
2021/09/30 02:19:36;;;;;;;0.55;0.55;;;;;;;;;;4976040;28;20524;-91
2021/09/30 02:22:32;;;;;;;1.23;1.23;;;;;;;;;;4976133;28;20096;-91
2021/09/30 03:00:20;;;;;;;0.98;0.98;;;;;;;;;;4924236;29;20535;-92
2021/09/30 03:02:47;;;;;;;0.40;0.40;;;;;;;;;;4941077;28;20138;-92
2021/09/30 03:05:13;;;;;;;1.30;0.50;;;;;;;;;;4922377;29;20047;-92
2021/09/30 03:07:39;;;;;;;4.18;0.40;;;;;;;;;;4937534;29;20135;-92
2021/09/30 03:10:06;;;;;;;0.80;0.45;;;;;;;;;;4953429;29;20039;-92
2021/09/30 03:12:32;;;;;;;0.65;0.63;;;;;;;;;;4937477;29;20118;-92
2021/09/30 03:15:08;;;;;;;0.55;0.40;;;;;;;;;;4952042;28;20081;-90
2021/09/30 03:17:46;;;;;;;0.20;0.20;;;;;;;;;;4923823;28;20047;-91
2021/09/30 03:20:28;;;;;;;0.30;0.30;;;;;;;;;;4941649;28;20049;-90
2021/09/30 03:22:56;;;;;;;0.43;0.30;;;;;;;;;;4932522;29;20439;-91
2021/09/30 03:25:22;;;;;;;0.38;0.38;;;;;;;;;;4936669;28;20043;-90
2021/09/30 03:27:48;;;;;;;0.40;0.40;;;;;;;;;;4940579;29;20562;-91
2021/09/30 03:30:14;;;;;;;0.10;0.10;;;;;;;;;;4957148;28;20051;-91
2021/09/30 03:32:40;;;;;;;0.20;0.20;;;;;;;;;;4924705;29;20039;-92
2021/09/30 03:35:06;;;;;;;0.28;0.28;;;;;;;;;;4941221;29;20483;-91
2021/09/30 03:37:32;;;;;;;0.10;0.10;;;;;;;;;;4940948;29;20066;-91
2021/09/30 03:39:59;;;;;;;0.20;0.20;;;;;;;;;;4956784;29;20047;-91
2021/09/30 03:42:25;;;;;;;0.30;0.30;;;;;;;;;;4940397;29;20126;-91
2021/09/30 03:44:53;;;;;;;0.10;0.10;;;;;;;;;;4953315;29;20087;-91
2021/09/30 03:47:19;;;;;;;0.45;0.45;;;;;;;;;;4924900;29;20039;-90
2021/09/30 03:49:47;;;;;;;1.02;0.90;;;;;;;;;;4924818;29;20134;-91
2021/09/30 03:52:22;;;;;;;0.20;0.20;;;;;;;;;;4924944;29;20031;-91
2021/09/30 03:59:45;;;;;;;0.45;0.45;;;;;;;;;;4956470;29;20043;-92
2021/09/30 04:02:11;;;;;;;0.47;0.43;;;;;;;;;;4956239;29;20043;-91
2021/09/30 04:04:37;;;;;;;0.40;0.40;;;;;;;;;;4940509;29;20131;-92
2021/09/30 04:07:08;;;;;;;1.45;0.40;;;;;;;;;;4940354;29;20075;-93
2021/09/30 04:09:36;;;;;;;0.30;0.30;;;;;;;;;;4925394;29;20054;-91
2021/09/30 04:12:02;;;;;;;0.20;0.20;;;;;;;;;;4940505;29;20071;-92
2021/09/30 04:14:29;;;;;;;1.25;0.45;;;;;;;;;;4940081;29;20082;-92
2021/09/30 04:16:54;;;;;;;2.15;0.63;;;;;;;;;;4956466;29;20447;-91
2021/09/30 04:19:21;;;;;;;0.40;0.40;;;;;;;;;;4956271;29;20043;-92
2021/09/30 04:21:47;;;;;;;0.20;0.20;;;;;;;;;;4956256;29;20043;-91
2021/09/30 04:24:13;;;;;;;0.40;0.40;;;;;;;;;;4955825;29;20176;-92
2021/09/30 04:26:39;;;;;;;0.65;0.40;;;;;;;;;;4972146;28;20051;-93
2021/09/30 04:29:05;;;;;;;0.20;0.20;;;;;;;;;;4957327;28;20134;-92
2021/09/30 04:31:31;;;;;;;0.28;0.28;;;;;;;;;;4978616;28;20078;-93
2021/09/30 04:33:57;;;;;;;0.63;0.63;;;;;;;;;;4978371;28;20038;-92
2021/09/30 04:36:23;;;;;;;0.30;0.30;;;;;;;;;;4978431;28;20046;-92
2021/09/30 04:38:49;;;;;;;0.20;0.20;;;;;;;;;;4945554;28;20038;-91
2021/09/30 04:41:16;;;;;;;0.40;0.40;;;;;;;;;;4978450;28;20069;-92
2021/09/30 04:43:45;;;;;;;0.30;0.30;;;;;;;;;;4945435;28;20074;-92
2021/09/30 04:46:11;;;;;;;1.75;0.85;;;;;;;;;;4946158;28;20158;-92
2021/09/30 04:48:37;;;;;;;0.20;0.20;;;;;;;;;;4978107;28;20511;-91
2021/09/30 04:51:03;;;;;;;0.93;0.90;;;;;;;;;;4994480;28;20046;-91
2021/09/30 04:53:29;;;;;;;0.10;0.10;;;;;;;;;;4977705;28;20129;-91
2021/09/30 04:55:55;;;;;;;0.10;0.10;;;;;;;;;;4978006;28;20481;-92
2021/09/30 04:58:21;;;;;;;0.20;0.20;;;;;;;;;;4945368;28;20398;-94
2021/09/30 05:00:47;;;;;;;0.50;0.50;;;;;;;;;;4962644;28;20065;-90
2021/09/30 05:03:13;;;;;;;0.20;0.20;;;;;;;;;;4945539;28;20042;-90
2021/09/30 05:05:39;;;;;;;0.20;0.20;;;;;;;;;;4979054;28;20155;-92
2021/09/30 05:08:05;;;;;;;0.93;0.20;;;;;;;;;;4977518;28;20042;-86
2021/09/30 05:10:34;;;;;;;0.10;0.10;;;;;;;;;;4976399;28;20042;-90
2021/09/30 05:13:05;;;;;;;0.10;0.10;;;;;;;;;;4956264;28;20042;-92
2021/09/30 05:15:32;;;;;;;0.10;0.10;;;;;;;;;;4961869;28;20046;-92
2021/09/30 05:17:59;;;;;;;0.10;0.10;;;;;;;;;;4961837;28;20096;-93
2021/09/30 05:20:25;;;;;;;0.20;0.20;;;;;;;;;;4945446;28;20046;-92
2021/09/30 05:22:51;;;;;;;0.10;0.10;;;;;;;;;;4993715;28;20117;-89
2021/09/30 05:25:17;;;;;;;0.10;0.10;;;;;;;;;;4975823;28;20093;-92
2021/09/30 05:27:43;;;;;;;0.20;0.20;;;;;;;;;;4960758;28;20097;-89
2021/09/30 05:30:09;;;;;;;0.10;0.10;;;;;;;;;;4944171;28;20058;-89
2021/09/30 05:32:35;;;;;;;0.17;0.17;;;;;;;;;;4976307;28;20129;-89
2021/09/30 05:35:01;;;;;;;0.10;0.10;;;;;;;;;;4984188;28;20066;-93
2021/09/30 05:37:28;;;;;;;0.10;0.10;;;;;;;;;;4944632;28;20110;-88
2021/09/30 05:39:55;;;;;;;0.30;0.30;;;;;;;;;;4957486;28;20126;-91
2021/09/30 05:42:23;;;;;;;0.10;0.10;;;;;;;;;;4960486;28;20038;-90
2021/09/30 05:44:49;;;;;;;0.20;0.20;;;;;;;;;;4945245;28;20042;-90
2021/09/30 05:47:15;;;;;;;0.10;0.10;;;;;;;;;;4976850;28;20124;-89
2021/09/30 05:49:41;;;;;;;0.17;0.17;;;;;;;;;;4976033;28;20149;-88
2021/09/30 05:52:07;;;;;;;0.20;0.20;;;;;;;;;;4976441;28;20042;-90
2021/09/30 05:54:33;;;;;;;0.10;0.10;;;;;;;;;;4976392;28;20062;-89
2021/09/30 05:56:59;;;;;;;0.20;0.20;;;;;;;;;;4992514;28;20525;-89
2021/09/30 05:59:25;;;;;;;0.10;0.10;;;;;;;;;;4975998;28;20407;-88
2021/09/30 06:05:58;;;;;;;0.10;0.10;;;;;;;;;;4972116;28;20348;-89
2021/09/30 06:10:19;;;;;;;0.10;0.10;;;;;;;;;;4972306;28;20054;-89
2021/09/30 06:12:48;;;;;;;0.10;0.10;;;;;;;;;;4956257;28;20042;-89
2021/09/30 06:15:17;;;;;;;0.10;0.10;;;;;;;;;;4956145;28;20129;-89
2021/09/30 06:17:46;;;;;;;0.10;0.10;;;;;;;;;;4957000;28;20054;-93
2021/09/30 06:20:12;;;;;;;0.10;0.10;;;;;;;;;;4940720;28;20082;-91
2021/09/30 06:22:38;;;;;;;0.10;0.10;;;;;;;;;;4956582;28;20050;-90
2021/09/30 06:25:04;;;;;;;0.10;0.10;;;;;;;;;;4956364;28;20514;-91
2021/09/30 06:27:30;;;;;;;0.10;0.10;;;;;;;;;;4941208;28;20085;-92
2021/09/30 06:29:56;;;;;;;0.20;0.20;;;;;;;;;;4940911;28;20051;-92
2021/09/30 06:32:22;;;;;;;0.10;0.10;;;;;;;;;;4957463;28;20043;-91
2021/09/30 06:34:48;;;;;;;0.10;0.10;;;;;;;;;;4941129;28;20050;-92
2021/09/30 06:37:14;;;;;;;0.10;0.10;;;;;;;;;;4956814;28;20034;-92
2021/09/30 06:39:40;;;;;;;0.20;0.20;;;;;;;;;;4940518;28;20375;-91
2021/09/30 06:42:06;;;;;;;4.18;0.43;;;;;;;;;;4956865;28;20049;-89
2021/09/30 06:44:32;;;;;;;0.10;0.10;;;;;;;;;;4956612;28;20121;-90
2021/09/30 06:46:58;;;;;;;0.10;0.10;;;;;;;;;;4956571;28;20069;-92
2021/09/30 06:49:24;;;;;;;0.10;0.10;;;;;;;;;;4956948;28;20518;-92
2021/09/30 06:51:51;;;;;;;0.10;0.10;;;;;;;;;;4956818;28;20047;-93
2021/09/30 06:54:17;;;;;;;0.10;0.10;;;;;;;;;;4956581;28;20054;-92
2021/09/30 06:56:47;;;;;;;0.10;0.10;;;;;;;;;;4956470;28;20077;-92
2021/09/30 06:59:19;;;;;;;0.10;0.10;;;;;;;;;;4940445;28;20116;-91
2021/09/30 07:01:45;;;;;;;0.10;0.10;;;;;;;;;;4939923;28;20054;-91
2021/09/30 07:04:11;;;;;;;0.10;0.10;;;;;;;;;;4956371;28;20042;-91
2021/09/30 07:06:36;;;;;;;0.20;0.20;;;;;;;;;;4940558;28;20038;-93
2021/09/30 07:09:03;;;;;;;0.17;0.17;;;;;;;;;;4956333;28;20038;-90
2021/09/30 07:11:29;;;;;;;0.10;0.10;;;;;;;;;;4956210;28;20166;-92
2021/09/30 07:13:55;;;;;;;0.13;0.13;;;;;;;;;;4956986;28;20039;-94
2021/09/30 07:16:21;;;;;;;0.10;0.10;;;;;;;;;;4943259;28;20046;-91
2021/09/30 07:18:47;;;;;;;0.10;0.10;;;;;;;;;;4955980;28;20455;-92
2021/09/30 07:21:13;;;;;;;0.10;0.10;;;;;;;;;;4955698;28;20090;-92
2021/09/30 07:23:39;;;;;;;0.13;0.13;;;;;;;;;;4940333;28;20115;-96
2021/09/30 07:26:07;;;;;;;0.10;0.10;;;;;;;;;;4940517;28;20047;-94
2021/09/30 07:28:33;;;;;;;0.10;0.10;;;;;;;;;;4940493;28;20095;-93
2021/09/30 07:30:59;;;;;;;0.10;0.10;;;;;;;;;;4956533;28;20065;-93
2021/09/30 07:33:25;;;;;;;0.10;0.10;;;;;;;;;;4956894;28;20133;-94
2021/09/30 07:35:52;;;;;;;0.10;0.10;;;;;;;;;;4956669;28;20043;-95
2021/09/30 07:38:19;;;;;;;0.10;0.10;;;;;;;;;;4957835;28;20049;-92
2021/09/30 07:40:44;;;;;;;0.10;0.10;;;;;;;;;;4940588;28;20047;-92
2021/09/30 07:43:11;;;;;;;0.10;0.10;;;;;;;;;;4956533;28;20042;-91
2021/09/30 07:45:37;;;;;;;0.10;0.10;;;;;;;;;;4955569;28;20043;-90
2021/09/30 07:48:03;;;;;;;1.08;0.98;;;;;;;;;;4939622;28;20549;-90
2021/09/30 07:50:29;;;;;;;0.25;0.25;;;;;;;;;;4955379;28;20061;-90
2021/09/30 07:52:57;;;;;;;0.38;0.38;;;;;;;;;;4955601;28;20054;-90
2021/09/30 07:55:23;;;;;;;0.60;0.60;;;;;;;;;;4955347;28;20078;-89
2021/09/30 07:57:49;;;;;;;0.20;0.20;;;;;;;;;;4939372;28;20199;-90
2021/09/30 08:00:15;;;;;;;0.10;0.10;;;;;;;;;;4955304;28;20043;-89
2021/09/30 08:02:41;;;;;;;0.13;0.13;;;;;;;;;;4939296;28;20094;-90
2021/09/30 08:05:07;;;;;;;0.10;0.10;;;;;;;;;;4954893;28;20102;-90
2021/09/30 08:07:33;;;;;;;0.10;0.10;;;;;;;;;;4955112;28;20070;-90
2021/09/30 08:09:59;;;;;;;0.13;0.13;;;;;;;;;;4940005;28;20097;-92
2021/09/30 08:12:25;;;;;;;0.20;0.20;;;;;;;;;;4955769;28;20042;-90
2021/09/30 08:14:51;;;;;;;0.10;0.10;;;;;;;;;;4958715;28;20134;-91
2021/09/30 08:17:17;;;;;;;0.20;0.20;;;;;;;;;;4943175;28;20107;-90
2021/09/30 08:19:44;;;;;;;0.10;0.10;;;;;;;;;;4958872;28;20048;-90
2021/09/30 08:22:10;;;;;;;0.30;0.30;;;;;;;;;;4959505;28;20049;-90
2021/09/30 08:24:36;;;;;;;0.10;0.10;;;;;;;;;;4959187;28;20046;-89
2021/09/30 08:27:02;;;;;;;0.10;0.10;;;;;;;;;;4958289;28;20043;-88
2021/09/30 08:29:28;;;;;;;0.20;0.20;;;;;;;;;;4958480;28;20203;-87
2021/09/30 08:31:54;;;;;;;0.10;0.10;;;;;;;;;;4959088;28;20443;-95
2021/09/30 08:34:20;;;;;;;0.10;0.10;;;;;;;;;;4958953;28;20043;-89
2021/09/30 08:36:46;;;;;;;0.10;0.10;;;;;;;;;;4958934;28;20042;-95
2021/09/30 08:39:12;;;;;;;0.20;0.20;;;;;;;;;;4961339;28;20074;-96
2021/09/30 08:41:38;;;;;;;0.10;0.10;;;;;;;;;;4944315;28;20042;-95
2021/09/30 08:44:07;;;;;;;0.20;0.20;;;;;;;;;;4961271;28;20085;-96
2021/09/30 08:46:33;;;;;;;0.10;0.10;;;;;;;;;;4945436;28;20070;-94
2021/09/30 08:49:00;;;;;;;0.10;0.10;;;;;;;;;;4960040;28;20042;-93
2021/09/30 08:51:26;;;;;;;0.10;0.10;;;;;;;;;;4943260;28;20076;-96
2021/09/30 08:53:53;;;;;;;0.10;0.10;;;;;;;;;;4965838;28;20116;-94
2021/09/30 08:56:19;;;;;;;0.10;0.10;;;;;;;;;;4946700;28;20497;-95
2021/09/30 08:58:45;;;;;;;0.10;0.10;;;;;;;;;;4946635;28;20402;-95
2021/09/30 09:01:12;;;;;;;0.10;0.10;;;;;;;;;;4947319;28;20049;-94
2021/09/30 09:03:46;;;;;;;0.10;0.10;;;;;;;;;;4946584;28;20516;-96
2021/09/30 09:06:27;;;;;;;0.10;0.10;;;;;;;;;;4949369;28;20049;-95
2021/09/30 09:08:57;;;;;;;0.10;0.10;;;;;;;;;;4970241;28;20038;-93
2021/09/30 09:11:23;;;;;;;0.10;0.10;;;;;;;;;;4971009;28;20038;-92
2021/09/30 09:13:49;;;;;;;0.10;0.10;;;;;;;;;;4992982;28;20066;-95
2021/09/30 09:16:15;;;;;;;0.20;0.20;;;;;;;;;;4981017;28;20052;-90
2021/09/30 09:18:44;;;;;;;0.10;0.10;;;;;;;;;;4985391;28;20026;-88
2021/09/30 09:21:10;;;;;;;0.10;0.10;;;;;;;;;;4969563;28;20090;-89
2021/09/30 09:23:43;;;;;;;0.10;0.10;;;;;;;;;;5000339;28;20050;-89
2021/09/30 09:26:11;;;;;;;0.10;0.10;;;;;;;;;;4948264;28;20046;-96
2021/09/30 09:28:37;;;;;;;0.10;0.10;;;;;;;;;;4946986;28;20069;-93
2021/09/30 09:31:03;;;;;;;0.10;0.10;;;;;;;;;;4963575;28;20109;-95
2021/09/30 09:33:34;;;;;;;0.10;0.10;;;;;;;;;;4946732;28;20096;-96
2021/09/30 09:36:08;;;;;;;0.10;0.10;;;;;;;;;;4977941;28;20042;-95
2021/09/30 09:38:43;;;;;;;0.10;0.10;;;;;;;;;;4946486;28;20073;-93
2021/09/30 09:41:12;;;;;;;0.10;0.10;;;;;;;;;;4961172;28;20361;-94
2021/09/30 09:43:47;;;;;;;0.10;0.10;;;;;;;;;;4961479;28;20125;-92
2021/09/30 09:46:14;;;;;;;0.10;0.10;;;;;;;;;;4945303;28;20042;-93
2021/09/30 09:48:40;;;;;;;0.10;0.10;;;;;;;;;;4961423;28;20038;-92
2021/09/30 09:51:10;;;;;;;0.10;0.10;;;;;;;;;;4961252;28;20074;-93
2021/09/30 09:53:36;;;;;;;0.10;0.10;;;;;;;;;;4977028;28;20121;-94
2021/09/30 09:56:09;;;;;;;0.20;0.20;;;;;;;;;;4961376;28;20053;-94
2021/09/30 09:59:02;;;;;;;0.10;0.10;;;;;;;;;;4961151;28;20038;-94
2021/09/30 10:01:28;;;;;;;;;;;;;;;;;;4975812;28;20085;-94
2021/09/30 10:04:00;;;;;;;0.10;0.10;;;;;;;;;;4977471;28;19961;-90
2021/09/30 10:06:30;;;;;;;0.10;0.10;;;;;;;;;;4962122;28;20073;-96
2021/09/30 10:08:56;;;;;;;0.10;0.10;;;;;;;;;;4951300;28;20038;-93
2021/09/30 10:11:22;;;;;;;0.10;0.10;;;;;;;;;;4966468;28;20038;-94
2021/09/30 10:13:48;;;;;;;0.10;0.10;;;;;;;;;;4948882;28;20072;-96
2021/09/30 10:16:18;;;;;;;0.10;0.10;;;;;;;;;;4963312;28;20435;-95
2021/09/30 10:18:54;;;;;;;;;;;;;;;;;;;;;
2021/09/30 10:21:27;;;;;;;0.10;0.10;;;;;;;;;;4964535;28;20093;-95
2021/09/30 10:23:57;;;;;;;0.10;0.10;;;;;;;;;;4962220;28;20431;-94
2021/09/30 10:26:33;;;;;;;0.10;0.10;;;;;;;;;;4977792;28;20050;-95
2021/09/30 10:29:25;;;;;;;0.10;0.10;;;;;;;;;;4985109;28;20046;-96
2021/09/30 10:32:02;;;;;;;0.10;0.10;;;;;;;;;;4961493;28;20054;-93
2021/09/30 10:34:31;;;;;;;0.10;0.10;;;;;;;;;;4967858;29;20099;-93
2021/09/30 10:37:31;;;;;;;0.10;0.10;;;;;;;;;;4985546;28;20146;-96
2021/09/30 10:40:16;;;;;;;0.10;0.10;;;;;;;;;;4983778;28;20085;-95
2021/09/30 10:42:53;;;;;;;0.10;0.10;;;;;;;;;;4965981;28;20122;-94
2021/09/30 10:45:19;;;;;;;0.20;0.20;;;;;;;;;;4955735;29;20111;-94
2021/09/30 10:47:48;;;;;;;0.10;0.10;;;;;;;;;;4972924;28;20479;-94
2021/09/30 10:50:14;;;;;;;0.10;0.10;;;;;;;;;;4970570;28;20043;-93
2021/09/30 10:52:59;;;;;;;0.10;0.10;;;;;;;;;;4953619;28;20122;-92
2021/09/30 10:55:25;;;;;;;0.10;0.10;;;;;;;;;;4969487;28;20038;-91
2021/09/30 10:57:55;;;;;;;0.10;0.10;;;;;;;;;;4953686;29;20062;-91
2021/09/30 11:00:21;;;;;;;0.20;0.20;;;;;;;;;;4969578;28;20051;-92
2021/09/30 11:03:02;;;;;;;0.10;0.10;;;;;;;;;;4969114;28;20039;-93
2021/09/30 11:05:28;;;;;;;0.10;0.10;;;;;;;;;;4969428;28;20256;-92
2021/09/30 11:08:13;;;;;;;0.10;0.10;;;;;;;;;;4953368;28;20184;-92
2021/09/30 11:10:39;;;;;;;0.10;0.10;;;;;;;;;;4953273;29;20384;-92
2021/09/30 11:13:17;;;;;;;0.20;0.20;;;;;;;;;;4953256;29;20039;-92
2021/09/30 11:16:03;;;;;;;0.10;0.10;;;;;;;;;;4969464;28;20312;-92
2021/09/30 11:18:37;;;;;;;0.10;0.10;;;;;;;;;;4954987;29;20067;-92
2021/09/30 11:21:03;;;;;;;0.10;0.10;;;;;;;;;;4953044;29;20043;-92
2021/09/30 11:23:48;;;;;;;0.10;0.10;;;;;;;;;;4969015;28;20035;-91
2021/09/30 11:26:17;;;;;;;0.10;0.10;;;;;;;;;;4968963;28;20104;-90
2021/09/30 11:28:43;;;;;;;0.10;0.10;;;;;;;;;;4968741;28;20099;-90
2021/09/30 11:31:25;;;;;;;0.20;0.20;;;;;;;;;;4952823;28;20063;-92
2021/09/30 11:33:56;;;;;;;0.10;0.10;;;;;;;;;;4953571;28;20047;-90
2021/09/30 11:36:32;;;;;;;1.10;0.57;;;;;;;;;;4953930;29;20275;-90
2021/09/30 11:38:58;;;;;;;0.10;0.10;;;;;;;;;;4956031;29;20043;-94
2021/09/30 11:41:31;;;;;;;0.10;0.10;;;;;;;;;;4954107;29;20098;-94
2021/09/30 11:43:57;;;;;;;;;;;;;;;;;;4939388;29;20463;-93
2021/09/30 11:46:23;;;;;;;0.10;0.10;;;;;;;;;;4937301;28;19922;-92
2021/09/30 11:48:56;;;;;;;0.10;0.10;;;;;;;;;;4925011;29;20035;-93
2021/09/30 11:51:40;;;;;;;0.10;0.10;;;;;;;;;;4941319;29;20499;-94
2021/09/30 11:54:07;;;;;;;0.10;0.10;;;;;;;;;;4957186;29;20039;-92
2021/09/30 11:56:46;;;;;;;0.25;0.25;;;;;;;;;;4956530;29;20538;-94
2021/09/30 11:59:12;;;;;;;0.20;0.20;;;;;;;;;;4940371;29;20043;-93
2021/09/30 12:01:42;;;;;;;0.30;0.20;;;;;;;;;;4924685;29;20039;-94
2021/09/30 12:04:08;;;;;;;0.10;0.10;;;;;;;;;;4924806;29;20549;-90
2021/09/30 12:06:41;;;;;;;0.20;0.20;;;;;;;;;;4940125;29;20062;-91
2021/09/30 12:09:07;;;;;;;;;;;;;;;;;;4925257;29;20396;-90
2021/09/30 12:11:35;;;;;;;0.10;0.10;;;;;;;;;;4956265;29;19941;-92
2021/09/30 12:14:01;;;;;;;0.10;0.10;;;;;;;;;;4926799;29;20501;-96
2021/09/30 12:16:27;;;;;;;0.10;0.10;;;;;;;;;;4932771;29;20032;-94
2021/09/30 12:19:00;;;;;;;0.20;0.20;;;;;;;;;;4930258;29;20046;-93
2021/09/30 12:21:39;;;;;;;0.10;0.10;;;;;;;;;;4951672;28;20042;-95
2021/09/30 12:24:08;;;;;;;0.10;0.10;;;;;;;;;;4976444;28;20098;-95
2021/09/30 12:26:35;;;;;;;0.10;0.10;;;;;;;;;;4960123;28;20050;-92
2021/09/30 12:29:02;;;;;;;0.10;0.10;;;;;;;;;;4965007;28;20043;-96
2021/09/30 12:31:37;;;;;;;0.10;0.10;;;;;;;;;;4985145;28;20058;-95
2021/09/30 12:34:21;;;;;;;0.10;0.10;;;;;;;;;;4972265;29;20039;-95
2021/09/30 12:36:49;;;;;;;0.20;0.20;;;;;;;;;;4948881;29;20047;-93
2021/09/30 12:39:15;;;;;;;0.10;0.10;;;;;;;;;;4969170;28;20098;-95
2021/09/30 12:41:43;;;;;;;0.10;0.10;;;;;;;;;;4933431;29;20102;-96
2021/09/30 12:44:12;;;;;;;0.10;0.10;;;;;;;;;;4950545;29;20070;-94
2021/09/30 12:46:42;;;;;;;0.10;0.10;;;;;;;;;;4947829;29;20043;-93
2021/09/30 12:49:08;;;;;;;0.10;0.10;;;;;;;;;;4929777;29;20051;-93
2021/09/30 12:51:34;;;;;;;0.10;0.10;;;;;;;;;;4966496;28;20126;-95
2021/09/30 12:54:00;;;;;;;0.10;0.10;;;;;;;;;;4931570;29;20087;-94
2021/09/30 12:56:30;;;;;;;0.10;0.10;;;;;;;;;;4942686;29;20055;-93
2021/09/30 12:58:58;;;;;;;0.10;0.10;;;;;;;;;;4931260;29;20057;-95
2021/09/30 13:01:33;;;;;;;0.10;0.10;;;;;;;;;;4936084;29;20086;-96
2021/09/30 13:04:03;;;;;;;0.10;0.10;;;;;;;;;;4964962;29;20487;-94
2021/09/30 13:06:32;;;;;;;;;;;;;;;;;;4963366;28;20055;-96
2021/09/30 13:09:00;;;;;;;0.20;0.20;;;;;;;;;;4964036;28;19919;-96
2021/09/30 13:14:48;;;;;;;0.10;0.10;;;;;;;;;;5504470;23;20134;-92
2021/09/30 13:17:16;;;;;;;0.10;0.10;;;;;;;;;;4978745;28;20137;-94
2021/09/30 13:19:42;;;;;;;0.10;0.10;;;;;;;;;;4996881;28;20055;-95
2021/09/30 13:22:08;;;;;;;0.10;0.10;;;;;;;;;;4995981;28;20049;-93
2021/09/30 13:24:35;;;;;;;0.10;0.10;;;;;;;;;;4998643;28;20039;-96
2021/09/30 13:27:03;;;;;;;0.10;0.10;;;;;;;;;;4983622;28;20051;-95
2021/09/30 13:29:29;;;;;;;0.10;0.10;;;;;;;;;;5017879;28;20538;-94
2021/09/30 13:31:55;;;;;;;0.10;0.10;;;;;;;;;;5001150;28;20125;-92
2021/09/30 13:34:21;;;;;;;0.10;0.10;;;;;;;;;;4977547;28;20042;-95
2021/09/30 13:36:49;;;;;;;0.10;0.10;;;;;;;;;;4976599;28;20046;-96
2021/09/30 13:39:15;;;;;;;0.10;0.10;;;;;;;;;;4974842;28;20042;-94
2021/09/30 13:41:41;;;;;;;0.10;0.10;;;;;;;;;;4975131;28;20057;-95
2021/09/30 13:44:07;;;;;;;0.10;0.10;;;;;;;;;;4975891;28;20510;-94
2021/09/30 13:46:33;;;;;;;0.10;0.10;;;;;;;;;;4990966;28;20576;-96
2021/09/30 13:48:59;;;;;;;0.10;0.10;;;;;;;;;;4977249;28;20375;-96
2021/09/30 13:51:27;;;;;;;0.10;0.10;;;;;;;;;;4992673;28;20058;-95
2021/09/30 13:53:53;;;;;;;0.20;0.20;;;;;;;;;;4977298;28;20051;-95
2021/09/30 13:56:19;;;;;;;0.10;0.10;;;;;;;;;;4977750;28;20042;-95
2021/09/30 13:58:45;;;;;;;0.10;0.10;;;;;;;;;;4992240;28;20553;-94
2021/09/30 14:01:11;;;;;;;0.10;0.10;;;;;;;;;;4975362;28;20042;-95
2021/09/30 14:03:37;;;;;;;0.10;0.10;;;;;;;;;;4990757;28;20046;-96
2021/09/30 14:06:03;;;;;;;0.10;0.10;;;;;;;;;;4974777;28;20410;-96
2021/09/30 14:08:32;;;;;;;0.10;0.10;;;;;;;;;;4976926;28;20047;-96
2021/09/30 14:10:58;;;;;;;0.10;0.10;;;;;;;;;;4975565;28;20098;-94
2021/09/30 14:13:24;;;;;;;0.10;0.10;;;;;;;;;;4974002;28;20533;-94
2021/09/30 14:15:55;;;;;;;0.10;0.10;;;;;;;;;;4980456;28;20051;-93
2021/09/30 14:18:21;;;;;;;0.10;0.10;;;;;;;;;;4976782;28;20060;-95
2021/09/30 14:20:48;;;;;;;0.10;0.10;;;;;;;;;;4990392;28;20053;-94
2021/09/30 14:23:14;;;;;;;0.10;0.10;;;;;;;;;;4974066;28;20097;-94
2021/09/30 14:25:50;;;;;;;0.10;0.10;;;;;;;;;;5002061;28;20111;-96
2021/09/30 14:28:19;;;;;;;0.10;0.10;;;;;;;;;;4996189;28;20068;-96
2021/09/30 14:30:45;;;;;;;0.10;0.10;;;;;;;;;;4996508;28;20505;-95
2021/09/30 14:33:11;;;;;;;0.10;0.10;;;;;;;;;;4993541;28;20038;-96
2021/09/30 14:35:37;;;;;;;0.10;0.10;;;;;;;;;;5027093;28;20054;-96
2021/09/30 14:38:05;;;;;;;0.10;0.10;;;;;;;;;;4993640;28;20104;-96
2021/09/30 14:40:31;;;;;;;0.10;0.10;;;;;;;;;;5014342;28;20089;-93
2021/09/30 14:42:57;;;;;;;0.10;0.10;;;;;;;;;;4993412;28;20047;-95
2021/09/30 14:45:25;;;;;;;0.10;0.10;;;;;;;;;;4956489;28;20514;-94
2021/09/30 14:47:51;;;;;;;0.10;0.10;;;;;;;;;;4958235;28;20101;-96
2021/09/30 14:50:18;;;;;;;0.10;0.10;;;;;;;;;;4974974;28;20093;-95
2021/09/30 14:52:44;;;;;;;0.10;0.10;;;;;;;;;;4974932;28;20097;-95
2021/09/30 14:55:15;;;;;;;0.10;0.10;;;;;;;;;;4960658;28;20050;-95
2021/09/30 14:57:41;;;;;;;0.10;0.10;;;;;;;;;;4978808;28;20262;-93
2021/09/30 15:00:12;;;;;;;0.10;0.10;;;;;;;;;;4975541;28;20202;-95
2021/09/30 15:02:38;;;;;;;0.10;0.10;;;;;;;;;;4976618;28;20038;-93
2021/09/30 15:05:04;;;;;;;0.10;0.10;;;;;;;;;;4974654;28;20050;-93
2021/09/30 15:07:30;;;;;;;0.10;0.10;;;;;;;;;;4974609;28;20043;-94
2021/09/30 15:09:56;;;;;;;0.10;0.10;;;;;;;;;;4957826;28;20042;-93
2021/09/30 15:12:22;;;;;;;0.15;0.15;;;;;;;;;;4956794;28;20387;-92
2021/09/30 15:14:49;;;;;;;0.70;0.30;;;;;;;;;;4956078;28;20038;-91
2021/09/30 15:19:49;;;;;;;0.10;0.10;;;;;;;;;;4972818;28;20438;-89
2021/09/30 15:22:15;;;;;;;0.10;0.10;;;;;;;;;;4957406;28;20450;-91
2021/09/30 15:24:41;;;;;;;0.32;0.32;;;;;;;;;;4959778;28;20147;-90
2021/09/30 15:27:07;;;;;;;0.10;0.10;;;;;;;;;;4959879;28;20065;-90
2021/09/30 15:29:35;;;;;;;0.10;0.10;;;;;;;;;;4961366;28;20094;-90
2021/09/30 15:32:02;;;;;;;0.20;0.20;;;;;;;;;;4959944;28;20042;-92
2021/09/30 15:34:29;;;;;;;0.10;0.10;;;;;;;;;;4976103;28;20043;-90
2021/09/30 15:44:49;;;;;;;0.10;0.10;;;;;;;;;;4979839;28;20057;-94
2021/09/30 15:47:15;;;;;;;0.10;0.10;;;;;;;;;;4980855;28;20465;-93
2021/09/30 15:49:41;;;;;;;0.10;0.10;;;;;;;;;;4946046;28;20046;-92
2021/09/30 15:52:07;;;;;;;0.10;0.10;;;;;;;;;;4964711;28;20046;-94
2021/09/30 15:54:33;;;;;;;0.10;0.10;;;;;;;;;;4945609;28;20049;-92
2021/09/30 15:56:59;;;;;;;0.10;0.10;;;;;;;;;;4961298;28;20050;-95
2021/09/30 15:59:25;;;;;;;0.10;0.10;;;;;;;;;;4962618;28;20137;-94
2021/09/30 16:01:51;;;;;;;0.10;0.10;;;;;;;;;;4964327;28;20138;-94
2021/09/30 16:04:17;;;;;;;0.10;0.10;;;;;;;;;;4961780;28;20042;-95
2021/09/30 16:06:43;;;;;;;0.10;0.10;;;;;;;;;;4960389;28;20482;-95
2021/09/30 16:09:09;;;;;;;0.10;0.10;;;;;;;;;;4962383;28;20090;-95
2021/09/30 16:11:36;;;;;;;0.65;0.65;;;;;;;;;;4943854;28;20518;-96
2021/09/30 16:14:02;;;;;;;0.10;0.10;;;;;;;;;;4959934;28;20417;-94
2021/09/30 16:16:28;;;;;;;0.10;0.10;;;;;;;;;;4943801;28;20129;-93
2021/09/30 16:18:54;;;;;;;0.10;0.10;;;;;;;;;;4959390;28;20050;-93
2021/09/30 16:21:20;;;;;;;0.10;0.10;;;;;;;;;;4944258;28;20050;-95
2021/09/30 16:23:46;;;;;;;0.10;0.10;;;;;;;;;;4961204;28;20043;-96
2021/09/30 16:28:51;;;;;;;0.10;0.10;;;;;;;;;;6081021;23;25067;-96
2021/09/30 16:31:18;;;;;;;0.10;0.10;;;;;;;;;;5006994;28;20088;-95
2021/09/30 16:33:47;;;;;;;0.10;0.10;;;;;;;;;;5020341;28;20042;-94
2021/09/30 16:36:16;;;;;;;0.10;0.10;;;;;;;;;;5018704;28;20165;-94
2021/09/30 16:38:43;;;;;;;0.10;0.10;;;;;;;;;;4979886;28;20054;-92
2021/09/30 16:41:09;;;;;;;0.10;0.10;;;;;;;;;;4963305;28;20073;-93
2021/09/30 16:43:35;;;;;;;0.10;0.10;;;;;;;;;;4991440;28;20030;-91
2021/09/30 16:46:02;;;;;;;0.10;0.10;;;;;;;;;;4982763;28;20034;-91
2021/09/30 16:48:31;;;;;;;0.10;0.10;;;;;;;;;;4980891;28;20038;-92
2021/09/30 16:50:57;;;;;;;0.10;0.10;;;;;;;;;;4997627;28;20111;-90
2021/09/30 16:53:25;;;;;;;0.10;0.10;;;;;;;;;;5001423;28;20050;-94
2021/09/30 16:55:51;;;;;;;0.10;0.10;;;;;;;;;;4985447;28;20062;-91
2021/09/30 16:58:17;;;;;;;0.10;0.10;;;;;;;;;;4975974;28;20042;-96
2021/09/30 17:00:45;;;;;;;0.10;0.10;;;;;;;;;;4984793;28;20077;-95
2021/09/30 17:09:01;;;;;;;0.10;0.10;;;;;;;;;;5226914;23;20117;-94
2021/09/30 17:11:28;;;;;;;0.15;0.15;;;;;;;;;;4997542;28;20054;-93
2021/09/30 17:13:54;;;;;;;0.10;0.10;;;;;;;;;;5012794;28;20042;-94
2021/09/30 17:16:20;;;;;;;1.20;0.57;;;;;;;;;;4999429;28;20039;-96
2021/09/30 17:19:01;;;;;;;;;;;;;;;;;;;;;
2021/09/30 17:24:35;;;;;;;0.10;0.10;;;;;;;;;;5770205;23;20025;-96
2021/09/30 17:27:01;;;;;;;0.10;0.10;;;;;;;;;;4983678;28;20073;-92
2021/09/30 17:29:28;;;;;;;0.30;0.30;;;;;;;;;;4999593;28;20042;-91
2021/09/30 17:31:55;;;;;;;0.10;0.10;;;;;;;;;;5015860;28;20121;-92
2021/09/30 17:36:49;;;;;;;0.10;0.10;;;;;;;;;;4993415;28;20050;-95
2021/09/30 17:39:15;;;;;;;0.10;0.10;;;;;;;;;;4984577;28;20188;-91
2021/09/30 17:41:41;;;;;;;0.10;0.10;;;;;;;;;;4961066;28;20049;-92
2021/09/30 17:44:07;;;;;;;0.10;0.10;;;;;;;;;;4977728;28;20046;-92
2021/09/30 17:46:34;;;;;;;0.20;0.20;;;;;;;;;;4996293;28;20053;-93
2021/09/30 17:49:00;;;;;;;0.10;0.10;;;;;;;;;;4967820;28;20141;-95
2021/09/30 17:51:26;;;;;;;0.10;0.10;;;;;;;;;;4990675;28;20042;-93
2021/09/30 17:53:55;;;;;;;0.10;0.10;;;;;;;;;;4981740;28;20358;-94